Pagina principale
METAR-TAF:

METAR-TAF

Aeroporti :

Meiringen, Svizzera

latitudine: 46-44-25N, longitudine: 8-06-36E, altezza: 577 m

Osservazione

Il bollettino è stato emesso 32 minuti fa, alle 15:50 UTC
Vento 10 kt da est/nord-est con raffiche fino a 21 kt, variando fra nord/nord-ovest e est/sud-est
Temperature 26°C
Umidità 34%
Pressione 1014 hPa
Visibilità 10 km o più

METAR: LSMM 131550Z AUTO 06010G21KT 330V120 9999NDV R10/M0050VP2000U R28/P2000D NCD 26/09 Q1014 RMK

Ora: 18:22 (16:22 UTC)


TAF: mancante

Osservazioni e previsioni meteorologiche di più di 4000 aeroporti (messaggi METAR e TAF).

Le stazioni disponibili sono rappresentate dai dischi gialli e rossi sulla carta.

Puntare il mouse per vedere il nome della stazione.

Clicca sopra per visualizzare le osservazioni e previsioni meteorologiche.

Per cambiare la mappa : fare clic sui pulsanti verdi con una croce nera per ingrandire, il pulsante verde con un trattino per diminuire, o sulla freccia verde per le mappe adiacenti.


METAR-TAF: